createdAt,value
2023-02-22T00:00:19.006Z,101292.63
2023-02-22T00:02:45.157Z,101294.16
2023-02-22T00:05:08.863Z,101296.84
2023-02-22T00:07:32.438Z,101295.53
2023-02-22T00:10:00.941Z,101298.31
2023-02-22T00:12:24.536Z,101297.28
2023-02-22T00:14:48.066Z,101291.00
2023-02-22T00:17:13.533Z,101288.38
2023-02-22T00:19:37.071Z,101287.97
2023-02-22T00:22:00.606Z,101287.72
2023-02-22T00:24:24.155Z,101294.50
2023-02-22T00:26:49.102Z,101285.09
2023-02-22T00:29:14.074Z,101283.38
2023-02-22T00:31:39.523Z,101280.50
2023-02-22T00:34:03.058Z,101277.81
2023-02-22T00:36:26.661Z,101279.78
2023-02-22T00:38:50.158Z,101284.28
2023-02-22T00:41:14.044Z,101275.69
2023-02-22T00:43:39.018Z,101274.31
2023-02-22T00:46:02.942Z,101275.84
2023-02-22T00:48:26.505Z,101271.25
2023-02-22T00:50:50.580Z,101279.22
2023-02-22T00:53:14.103Z,101275.72
2023-02-22T00:55:39.356Z,101276.38
2023-02-22T00:58:03.739Z,101281.25
2023-02-22T01:00:32.051Z,101284.13
2023-02-22T01:02:56.969Z,101279.56
2023-02-22T01:05:26.480Z,101281.66
2023-02-22T01:07:51.014Z,101289.34
2023-02-22T01:10:15.068Z,101286.56
2023-02-22T01:12:39.617Z,101291.41
2023-02-22T01:15:05.195Z,101284.94
2023-02-22T01:17:30.529Z,101285.66
2023-02-22T01:19:54.764Z,101286.06
2023-02-22T01:22:18.797Z,101286.72
2023-02-22T01:24:42.420Z,101286.06
2023-02-22T01:27:06.095Z,101280.16
2023-02-22T01:29:29.923Z,101278.72
2023-02-22T01:31:56.156Z,101273.63
2023-02-22T01:34:22.166Z,101279.59
2023-02-22T01:36:45.747Z,101275.25
2023-02-22T01:39:10.336Z,101267.72
2023-02-22T01:41:33.925Z,101267.34
2023-02-22T01:43:57.515Z,101260.28
2023-02-22T01:46:24.970Z,101262.88
2023-02-22T01:48:54.822Z,101264.78
2023-02-22T01:51:26.548Z,101262.38
2023-02-22T01:53:54.640Z,101261.41
2023-02-22T01:56:19.906Z,101260.47
2023-02-22T01:58:48.371Z,101260.84
2023-02-22T02:01:13.033Z,101258.81
2023-02-22T02:03:39.755Z,101257.41
2023-02-22T02:06:07.559Z,101255.00
2023-02-22T02:08:39.613Z,101264.88
2023-02-22T02:11:05.223Z,101253.75
2023-02-22T02:13:29.850Z,101263.72
2023-02-22T02:15:56.423Z,101258.75
2023-02-22T02:18:20.054Z,101257.03
2023-02-22T02:20:55.164Z,101256.47
2023-02-22T02:23:59.889Z,101255.13
2023-02-22T02:27:15.567Z,101252.25
2023-02-22T02:30:34.116Z,101253.78
2023-02-22T02:33:06.372Z,101247.66
2023-02-22T02:35:41.241Z,101247.47
2023-02-22T02:38:13.384Z,101256.84
2023-02-22T02:40:47.377Z,101249.50
2023-02-22T02:43:19.141Z,101247.81
2023-02-22T02:45:49.031Z,101240.47
2023-02-22T02:48:17.359Z,101247.97
2023-02-22T02:50:46.528Z,101246.72
2023-02-22T02:53:11.409Z,101241.66
2023-02-22T02:55:37.212Z,101251.50
2023-02-22T02:58:00.839Z,101252.81
2023-02-22T03:00:30.236Z,101239.25
2023-02-22T03:03:12.228Z,101242.22
2023-02-22T03:06:00.025Z,101251.13
2023-02-22T03:08:34.021Z,101253.97
2023-02-22T03:11:14.948Z,101254.44
2023-02-22T03:13:52.137Z,101247.47
2023-02-22T03:16:23.772Z,101236.03
2023-02-22T03:18:56.040Z,101236.03
2023-02-22T03:21:33.694Z,101241.38
2023-02-22T03:24:08.496Z,101250.91
2023-02-22T03:26:39.317Z,101240.22
2023-02-22T03:29:05.239Z,101242.59
2023-02-22T03:31:38.336Z,101239.09
2023-02-22T03:34:07.942Z,101239.56
2023-02-22T03:36:39.051Z,101240.09
2023-02-22T03:39:04.793Z,101235.91
2023-02-22T03:41:31.394Z,101242.59
2023-02-22T03:44:00.644Z,101248.06
2023-02-22T03:46:25.065Z,101247.28
2023-02-22T03:48:55.253Z,101243.66
2023-02-22T03:51:19.941Z,101238.09
2023-02-22T03:53:49.262Z,101245.91
2023-02-22T03:56:20.353Z,101251.19
2023-02-22T03:58:46.054Z,101244.31
2023-02-22T04:01:09.641Z,101240.97
2023-02-22T04:03:33.518Z,101251.00
2023-02-22T04:05:58.731Z,101251.75
2023-02-22T04:08:22.496Z,101253.56
2023-02-22T04:10:47.517Z,101245.06
2023-02-22T04:13:14.722Z,101242.75
2023-02-22T04:15:42.331Z,101250.22
2023-02-22T04:18:07.399Z,101248.84
2023-02-22T04:20:34.889Z,101251.91
2023-02-22T04:23:06.571Z,101249.81
2023-02-22T04:25:30.189Z,101246.22
2023-02-22T04:27:55.637Z,101247.38
2023-02-22T04:30:31.221Z,101247.47
2023-02-22T04:32:54.950Z,101248.13
2023-02-22T04:35:20.379Z,101240.97
2023-02-22T04:37:44.019Z,101246.06
2023-02-22T04:40:10.674Z,101244.28
2023-02-22T04:42:34.438Z,101243.91
2023-02-22T04:45:00.307Z,101238.41
2023-02-22T04:47:23.956Z,101241.75
2023-02-22T04:49:47.469Z,101232.78
2023-02-22T04:52:11.186Z,101234.38
2023-02-22T04:54:35.857Z,101238.66
2023-02-22T04:56:59.599Z,101243.25
2023-02-22T04:59:23.293Z,101238.19
2023-02-22T05:01:54.072Z,101235.59
2023-02-22T05:04:17.790Z,101240.22
2023-02-22T05:06:41.310Z,101235.47
2023-02-22T05:09:05.178Z,101238.66
2023-02-22T05:11:29.024Z,101232.56
2023-02-22T05:13:52.645Z,101227.41
2023-02-22T05:16:16.846Z,101230.38
2023-02-22T05:18:41.833Z,101226.50
2023-02-22T05:21:06.775Z,101224.00
2023-02-22T05:23:30.341Z,101222.00
2023-02-22T05:25:53.906Z,101228.88
2023-02-22T05:28:18.339Z,101225.84
2023-02-22T05:30:42.177Z,101226.03
2023-02-22T05:33:06.020Z,101231.38
2023-02-22T05:35:31.118Z,101225.19
2023-02-22T05:37:54.704Z,101224.41
2023-02-22T05:40:20.252Z,101233.09
2023-02-22T05:42:43.812Z,101227.56
2023-02-22T05:45:09.249Z,101228.25
2023-02-22T05:47:32.825Z,101233.59
2023-02-22T05:49:56.412Z,101235.28
2023-02-22T05:52:21.349Z,101238.06
2023-02-22T05:54:45.343Z,101239.97
2023-02-22T05:57:09.177Z,101241.50
2023-02-22T05:59:32.733Z,101238.06
2023-02-22T06:01:56.373Z,101246.09
2023-02-22T06:04:20.186Z,101246.28
2023-02-22T06:06:43.840Z,101239.97
2023-02-22T06:09:08.876Z,101240.72
2023-02-22T06:11:32.499Z,101237.97
2023-02-22T06:13:56.043Z,101247.44
2023-02-22T06:16:21.084Z,101252.66
2023-02-22T06:18:44.742Z,101256.84
2023-02-22T06:21:10.668Z,101255.66
2023-02-22T06:23:34.168Z,101253.34
2023-02-22T06:25:59.152Z,101254.78
2023-02-22T06:28:23.734Z,101257.03
2023-02-22T06:30:47.442Z,101258.81
2023-02-22T06:33:11.950Z,101257.09
2023-02-22T06:35:35.618Z,101264.94
2023-02-22T06:37:59.114Z,101265.41
2023-02-22T06:40:22.893Z,101267.50
2023-02-22T06:42:50.012Z,101268.38
2023-02-22T06:45:13.585Z,101270.78
2023-02-22T06:47:41.468Z,101273.09
2023-02-22T06:50:05.037Z,101274.88
2023-02-22T06:52:28.785Z,101274.81
2023-02-22T06:54:52.899Z,101274.41
2023-02-22T06:57:16.606Z,101279.22
2023-02-22T06:59:41.625Z,101278.81
2023-02-22T07:02:05.157Z,101279.78
2023-02-22T07:04:28.779Z,101278.53
2023-02-22T07:06:52.537Z,101282.63
2023-02-22T07:09:17.635Z,101284.94
2023-02-22T07:11:41.313Z,101288.84
2023-02-22T07:14:04.881Z,101285.78
2023-02-22T07:16:29.865Z,101289.53
2023-02-22T07:18:53.465Z,101282.44
2023-02-22T07:21:18.856Z,101290.94
2023-02-22T07:23:42.573Z,101281.09
2023-02-22T07:26:06.910Z,101283.00
2023-02-22T07:28:30.707Z,101280.94
2023-02-22T07:30:54.304Z,101283.59
2023-02-22T07:33:19.303Z,101290.66
2023-02-22T07:35:47.677Z,101280.47
2023-02-22T07:38:11.476Z,101276.38
2023-02-22T07:40:35.691Z,101288.50
2023-02-22T07:43:01.668Z,101290.59
2023-02-22T07:45:27.257Z,101292.97
2023-02-22T07:47:50.854Z,101295.38
2023-02-22T07:50:16.778Z,101295.66
2023-02-22T07:52:40.364Z,101291.34
2023-02-22T07:55:03.891Z,101296.31
2023-02-22T07:57:27.462Z,101296.09
2023-02-22T07:59:51.418Z,101296.75
2023-02-22T08:02:18.874Z,101293.19
2023-02-22T08:04:42.408Z,101297.78
2023-02-22T08:07:07.411Z,101291.97
2023-02-22T08:09:30.922Z,101302.00
2023-02-22T08:11:54.492Z,101297.84
2023-02-22T08:14:18.433Z,101290.44
2023-02-22T08:16:42.033Z,101294.97
2023-02-22T08:19:05.561Z,101288.88
2023-02-22T08:21:30.395Z,101293.06
2023-02-22T08:23:56.002Z,101293.81
2023-02-22T08:26:20.828Z,101294.59
2023-02-22T08:28:44.354Z,101297.81
2023-02-22T08:31:08.957Z,101294.50
2023-02-22T08:33:32.542Z,101290.09
2023-02-22T08:35:56.509Z,101295.13
2023-02-22T08:38:23.788Z,101293.00
2023-02-22T08:40:50.215Z,101292.38
2023-02-22T08:43:14.558Z,101292.28
2023-02-22T08:45:38.220Z,101288.13
2023-02-22T08:48:01.741Z,101288.81
2023-02-22T08:50:27.678Z,101288.94
2023-02-22T08:52:52.316Z,101288.03
2023-02-22T08:55:16.201Z,101283.84
2023-02-22T08:57:41.107Z,101294.78
2023-02-22T09:00:06.268Z,101287.16
2023-02-22T09:02:29.814Z,101290.31
2023-02-22T09:04:53.411Z,101283.28
2023-02-22T09:07:18.194Z,101283.94
2023-02-22T09:09:43.541Z,101281.03
2023-02-22T09:12:07.927Z,101285.13
2023-02-22T09:14:32.905Z,101281.44
2023-02-22T09:16:56.557Z,101283.72
2023-02-22T09:19:20.311Z,101276.09
2023-02-22T09:21:43.818Z,101289.31
2023-02-22T09:24:09.371Z,101287.06
2023-02-22T09:26:33.277Z,101283.81
2023-02-22T09:28:56.877Z,101275.28
2023-02-22T09:31:22.418Z,101279.31
2023-02-22T09:33:47.514Z,101282.88
2023-02-22T09:36:11.302Z,101289.16
2023-02-22T09:38:35.060Z,101283.63
2023-02-22T09:41:12.346Z,101280.59
2023-02-22T09:43:43.234Z,101282.31
2023-02-22T09:46:22.917Z,101276.56
2023-02-22T09:49:03.715Z,101267.44
2023-02-22T09:51:35.364Z,101267.94
2023-02-22T09:54:03.808Z,101274.22
2023-02-22T09:56:30.169Z,101271.13
2023-02-22T09:59:00.739Z,101262.75
2023-02-22T10:01:32.636Z,101263.38
2023-02-22T10:04:07.153Z,101262.38
2023-02-22T10:06:33.575Z,101256.31
2023-02-22T10:09:06.898Z,101258.22
2023-02-22T10:11:48.724Z,101260.28
2023-02-22T10:14:36.150Z,101259.41
2023-02-22T10:17:12.190Z,101256.25
2023-02-22T10:19:46.217Z,101257.22
2023-02-22T10:22:46.066Z,101254.06
2023-02-22T10:25:17.933Z,101253.34
2023-02-22T10:27:47.920Z,101259.13
2023-02-22T10:30:25.357Z,101247.22
2023-02-22T10:32:57.142Z,101246.38
2023-02-22T10:35:25.761Z,101250.78
2023-02-22T10:37:53.286Z,101250.03
2023-02-22T10:40:23.027Z,101251.25
2023-02-22T10:42:47.357Z,101246.59
2023-02-22T10:45:26.806Z,101245.84
2023-02-22T10:47:52.710Z,101238.34
2023-02-22T10:50:17.350Z,101239.44
2023-02-22T10:52:40.918Z,101240.19
2023-02-22T10:55:15.367Z,101242.25
2023-02-22T10:57:39.704Z,101243.75
2023-02-22T11:00:19.837Z,101242.06
2023-02-22T11:02:54.974Z,101240.44
2023-02-22T11:05:30.997Z,101242.53
2023-02-22T11:08:15.944Z,101233.97
2023-02-22T11:10:39.575Z,101232.22
2023-02-22T11:13:19.178Z,101231.28
2023-02-22T11:15:44.198Z,101232.22
2023-02-22T11:18:26.667Z,101236.78
2023-02-22T11:20:50.448Z,101236.41
2023-02-22T11:23:14.599Z,101233.53
2023-02-22T11:25:42.346Z,101239.56
2023-02-22T11:28:14.930Z,101228.53
2023-02-22T11:30:39.598Z,101232.47
2023-02-22T11:33:23.493Z,101223.13
2023-02-22T11:35:53.298Z,101217.22
2023-02-22T11:38:22.778Z,101218.69
2023-02-22T11:40:46.782Z,101215.34
2023-02-22T11:43:17.562Z,101202.25
2023-02-22T11:45:49.827Z,101215.22
2023-02-22T11:48:23.357Z,101203.38
2023-02-22T11:51:18.667Z,101198.50
2023-02-22T11:53:59.057Z,101201.66
2023-02-22T11:56:37.805Z,101198.09
2023-02-22T11:59:13.158Z,101196.00
2023-02-22T12:01:46.498Z,101189.75
2023-02-22T12:04:55.805Z,101200.63
2023-02-22T12:07:44.643Z,101188.69
2023-02-22T12:10:22.853Z,101184.03
2023-02-22T12:13:06.733Z,101189.34
2023-02-22T12:15:38.097Z,101186.47
2023-02-22T12:18:10.773Z,101183.44
2023-02-22T12:20:40.814Z,101186.88
2023-02-22T12:23:16.377Z,101176.09
2023-02-22T12:25:48.458Z,101185.25
2023-02-22T12:28:25.151Z,101174.81
2023-02-22T12:30:55.567Z,101177.72
2023-02-22T12:33:27.249Z,101176.22
2023-02-22T12:35:56.662Z,101186.38
2023-02-22T12:38:26.205Z,101178.69
2023-02-22T12:40:58.175Z,101176.28
2023-02-22T12:43:28.125Z,101180.25
2023-02-22T12:46:00.804Z,101177.81
2023-02-22T12:48:36.392Z,101177.63
2023-02-22T12:51:17.286Z,101177.56
2023-02-22T12:53:46.603Z,101177.19
2023-02-22T12:56:22.476Z,101176.69
2023-02-22T12:58:54.365Z,101173.06
2023-02-22T13:01:21.976Z,101176.66
2023-02-22T13:03:46.099Z,101177.81
2023-02-22T13:06:38.120Z,101171.44
2023-02-22T13:09:26.655Z,101170.94
2023-02-22T13:11:59.494Z,101173.16
2023-02-22T13:14:46.600Z,101174.41
2023-02-22T13:17:21.136Z,101167.53
2023-02-22T13:19:50.756Z,101164.00
2023-02-22T13:22:25.326Z,101158.63
2023-02-22T13:25:04.676Z,101158.84
2023-02-22T13:27:35.456Z,101159.06
2023-02-22T13:30:04.012Z,101151.44
2023-02-22T13:33:03.108Z,101151.75
2023-02-22T13:35:48.932Z,101145.88
2023-02-22T13:38:55.087Z,101144.66
2023-02-22T13:41:44.975Z,101151.34
2023-02-22T13:44:52.542Z,101147.38
2023-02-22T13:48:12.350Z,101149.19
2023-02-22T13:51:15.273Z,101144.38
2023-02-22T13:53:50.980Z,101147.84
2023-02-22T13:56:16.593Z,101146.03
2023-02-22T13:58:52.863Z,101146.09
2023-02-22T14:01:43.262Z,101138.53
2023-02-22T14:04:44.157Z,101141.47
2023-02-22T14:07:56.024Z,101138.16
2023-02-22T14:10:50.517Z,101139.50
2023-02-22T14:13:16.092Z,101141.34
2023-02-22T14:16:21.111Z,101129.88
2023-02-22T14:18:47.013Z,101134.66
2023-02-22T14:21:12.551Z,101139.53
2023-02-22T14:23:40.191Z,101127.78
2023-02-22T14:26:18.427Z,101135.88
2023-02-22T14:28:52.682Z,101129.75
2023-02-22T14:31:35.096Z,101125.19
2023-02-22T14:34:05.528Z,101121.16
2023-02-22T14:36:35.408Z,101119.22
2023-02-22T14:39:12.164Z,101114.56
2023-02-22T14:41:39.135Z,101114.94
2023-02-22T14:44:05.725Z,101116.41
2023-02-22T14:46:34.553Z,101110.03
2023-02-22T14:49:05.348Z,101116.53
2023-02-22T14:51:34.848Z,101108.81
2023-02-22T14:54:07.696Z,101102.47
2023-02-22T14:56:41.203Z,101105.28
2023-02-22T14:59:19.015Z,101111.09
2023-02-22T15:01:58.395Z,101107.94
2023-02-22T15:04:28.833Z,101098.19
2023-02-22T15:06:53.834Z,101101.22
2023-02-22T15:09:25.052Z,101095.19
2023-02-22T15:11:50.240Z,101091.31
2023-02-22T15:14:26.204Z,101099.78
2023-02-22T15:16:56.075Z,101100.59
2023-02-22T15:19:26.297Z,101093.63
2023-02-22T15:21:52.200Z,101097.19
2023-02-22T15:24:25.664Z,101095.69
2023-02-22T15:27:01.112Z,101092.28
2023-02-22T15:29:30.680Z,101091.53
2023-02-22T15:31:56.791Z,101099.16
2023-02-22T15:34:27.059Z,101095.19
2023-02-22T15:36:54.583Z,101092.75
2023-02-22T15:39:25.556Z,101097.00
2023-02-22T15:41:49.210Z,101092.47
2023-02-22T15:44:27.990Z,101092.88
2023-02-22T15:46:54.457Z,101088.56
2023-02-22T15:49:26.009Z,101086.56
2023-02-22T15:52:02.239Z,101083.44
2023-02-22T15:54:27.962Z,101091.16
2023-02-22T15:56:56.595Z,101089.09
2023-02-22T15:59:22.625Z,101082.63
2023-02-22T16:01:49.012Z,101078.75
2023-02-22T16:04:20.062Z,101082.59
2023-02-22T16:06:45.099Z,101078.63
2023-02-22T16:09:12.060Z,101076.78
2023-02-22T16:11:40.497Z,101071.19
2023-02-22T16:14:07.565Z,101073.19
2023-02-22T16:16:33.830Z,101070.16
2023-02-22T16:19:27.664Z,101076.16
2023-02-22T16:21:58.462Z,101078.16
2023-02-22T16:24:28.737Z,101074.63
2023-02-22T16:27:17.587Z,101073.72
2023-02-22T16:29:41.331Z,101072.97
2023-02-22T16:32:05.432Z,101074.41
2023-02-22T16:34:29.136Z,101073.34
2023-02-22T16:36:55.563Z,101078.31
2023-02-22T16:39:27.103Z,101073.88
2023-02-22T16:41:52.780Z,101079.50
2023-02-22T16:44:17.237Z,101080.66
2023-02-22T16:46:41.952Z,101075.16
2023-02-22T16:49:05.649Z,101076.00
2023-02-22T16:51:30.121Z,101080.69
2023-02-22T16:53:56.968Z,101079.94
2023-02-22T16:56:24.843Z,101083.03
2023-02-22T16:58:51.072Z,101081.16
2023-02-22T17:01:14.652Z,101086.53
2023-02-22T17:03:38.295Z,101081.50
2023-02-22T17:06:01.870Z,101086.88
2023-02-22T17:08:25.637Z,101083.84
2023-02-22T17:10:51.625Z,101075.41
2023-02-22T17:13:23.049Z,101078.81
2023-02-22T17:15:47.867Z,101079.44
2023-02-22T17:18:16.338Z,101075.09
2023-02-22T17:20:39.909Z,101082.34
2023-02-22T17:23:06.502Z,101079.50
2023-02-22T17:25:34.650Z,101080.88
2023-02-22T17:27:59.682Z,101081.94
2023-02-22T17:30:24.119Z,101079.44
2023-02-22T17:32:48.672Z,101075.03
2023-02-22T17:35:13.005Z,101077.63
2023-02-22T17:37:37.454Z,101080.28
2023-02-22T17:40:01.273Z,101075.50
2023-02-22T17:42:24.948Z,101081.34
2023-02-22T17:44:50.001Z,101077.41
2023-02-22T17:47:13.579Z,101079.25
2023-02-22T17:49:37.185Z,101075.81
2023-02-22T17:52:02.762Z,101075.63
2023-02-22T17:54:27.070Z,101073.13
2023-02-22T17:56:50.706Z,101077.94
2023-02-22T17:59:14.379Z,101079.38
2023-02-22T18:01:39.660Z,101070.34
2023-02-22T18:04:05.160Z,101072.94
2023-02-22T18:06:32.722Z,101074.34
2023-02-22T18:08:57.488Z,101075.19
2023-02-22T18:11:21.237Z,101078.50
2023-02-22T18:13:44.842Z,101069.09
2023-02-22T18:16:10.133Z,101069.19
2023-02-22T18:18:35.505Z,101070.34
2023-02-22T18:21:00.405Z,101065.31
2023-02-22T18:23:27.938Z,101069.72
2023-02-22T18:26:09.282Z,101067.38
2023-02-22T18:28:34.158Z,101065.97
2023-02-22T18:30:59.106Z,101066.63
2023-02-22T18:33:22.822Z,101070.56
2023-02-22T18:35:52.270Z,101066.72
2023-02-22T18:38:22.852Z,101065.34
2023-02-22T18:40:47.970Z,101059.66
2023-02-22T18:43:11.541Z,101060.19
2023-02-22T18:45:36.078Z,101064.69
2023-02-22T18:47:59.591Z,101074.00
2023-02-22T18:50:23.166Z,101064.25
2023-02-22T18:52:48.073Z,101055.81
2023-02-22T18:55:13.459Z,101065.66
2023-02-22T18:57:37.126Z,101067.69
2023-02-22T19:00:00.717Z,101058.38
2023-02-22T19:02:25.518Z,101059.13
2023-02-22T19:04:49.406Z,101063.72
2023-02-22T19:07:17.729Z,101055.38
2023-02-22T19:09:42.681Z,101061.81
2023-02-22T19:12:07.315Z,101061.16
2023-02-22T19:14:30.884Z,101050.56
2023-02-22T19:16:56.858Z,101052.91
2023-02-22T19:19:20.982Z,101062.13
2023-02-22T19:21:44.499Z,101058.28
2023-02-22T19:24:08.956Z,101065.44
2023-02-22T19:26:33.924Z,101063.94
2023-02-22T19:28:59.818Z,101062.66
2023-02-22T19:31:28.214Z,101065.09
2023-02-22T19:33:52.350Z,101065.97
2023-02-22T19:36:16.890Z,101063.66
2023-02-22T19:38:41.235Z,101066.16
2023-02-22T19:41:10.375Z,101062.63
2023-02-22T19:43:35.558Z,101063.06
2023-02-22T19:45:59.138Z,101061.09
2023-02-22T19:48:22.866Z,101057.13
2023-02-22T19:50:49.509Z,101068.53
2023-02-22T19:53:14.054Z,101070.81
2023-02-22T19:55:38.357Z,101067.97
2023-02-22T19:58:01.985Z,101067.50
2023-02-22T20:00:27.811Z,101068.84
2023-02-22T20:02:51.828Z,101071.78
2023-02-22T20:05:16.487Z,101064.22
2023-02-22T20:07:40.215Z,101067.94
2023-02-22T20:10:03.946Z,101061.72
2023-02-22T20:12:27.709Z,101062.75
2023-02-22T20:14:51.248Z,101063.31
2023-02-22T20:17:16.212Z,101070.03
2023-02-22T20:19:40.636Z,101069.25
2023-02-22T20:22:04.539Z,101073.97
2023-02-22T20:24:28.502Z,101066.41
2023-02-22T20:26:55.776Z,101069.63
2023-02-22T20:29:20.881Z,101075.19
2023-02-22T20:31:49.328Z,101070.03
2023-02-22T20:34:15.563Z,101068.59
2023-02-22T20:36:42.429Z,101074.72
2023-02-22T20:39:13.189Z,101063.56
2023-02-22T20:41:37.563Z,101057.16
2023-02-22T20:44:02.940Z,101059.41
2023-02-22T20:46:28.301Z,101064.84
2023-02-22T20:48:56.419Z,101065.81
2023-02-22T20:51:21.359Z,101062.56
2023-02-22T20:53:45.098Z,101063.03
2023-02-22T20:56:11.482Z,101059.75
2023-02-22T20:58:35.185Z,101059.59
2023-02-22T21:01:05.946Z,101061.66
2023-02-22T21:03:30.591Z,101065.00
2023-02-22T21:05:54.170Z,101061.78
2023-02-22T21:08:19.163Z,101058.44
2023-02-22T21:10:43.846Z,101063.50
2023-02-22T21:13:11.249Z,101059.56
2023-02-22T21:15:36.238Z,101058.06
2023-02-22T21:17:59.809Z,101060.19
2023-02-22T21:20:23.342Z,101053.78
2023-02-22T21:22:49.903Z,101064.56
2023-02-22T21:25:16.646Z,101065.13
2023-02-22T21:27:42.074Z,101057.44
2023-02-22T21:30:06.978Z,101054.53
2023-02-22T21:32:30.578Z,101059.78
2023-02-22T21:34:54.920Z,101055.78
2023-02-22T21:37:18.474Z,101055.97
2023-02-22T21:39:47.522Z,101055.75
2023-02-22T21:42:13.831Z,101055.53
2023-02-22T21:44:37.545Z,101059.84
2023-02-22T21:47:01.100Z,101049.75
2023-02-22T21:49:25.088Z,101045.16
2023-02-22T21:51:48.705Z,101049.25
2023-02-22T21:54:13.815Z,101038.41
2023-02-22T21:56:39.976Z,101036.19
2023-02-22T21:59:07.542Z,101039.19
2023-02-22T22:01:33.842Z,101038.75
2023-02-22T22:04:00.093Z,101040.75
2023-02-22T22:06:23.873Z,101036.53
2023-02-22T22:08:47.450Z,101030.25
2023-02-22T22:11:12.783Z,101033.97
2023-02-22T22:13:37.952Z,101028.25
2023-02-22T22:16:08.457Z,101023.97
2023-02-22T22:18:32.616Z,101024.56
2023-02-22T22:20:56.458Z,101021.09
2023-02-22T22:23:19.978Z,101022.22
2023-02-22T22:25:43.787Z,101017.91
2023-02-22T22:28:08.669Z,101017.16
2023-02-22T22:30:34.235Z,101018.97
2023-02-22T22:32:59.255Z,101016.97
2023-02-22T22:35:22.809Z,101022.88
2023-02-22T22:37:51.103Z,101018.78
2023-02-22T22:40:15.952Z,101020.44
2023-02-22T22:42:39.500Z,101007.19
2023-02-22T22:45:03.245Z,101011.84
2023-02-22T22:47:26.818Z,101003.34
2023-02-22T22:49:52.951Z,101008.13
2023-02-22T22:52:19.028Z,101006.31
2023-02-22T22:54:43.884Z,101006.00
2023-02-22T22:57:07.528Z,101004.50
2023-02-22T22:59:31.863Z,100999.22
2023-02-22T23:01:56.704Z,100997.84
2023-02-22T23:04:21.519Z,101002.69
2023-02-22T23:06:49.927Z,101003.22
2023-02-22T23:09:18.828Z,100998.28
2023-02-22T23:11:45.911Z,100995.63
2023-02-22T23:14:09.922Z,100989.78
2023-02-22T23:16:33.954Z,100989.81
2023-02-22T23:18:58.698Z,100991.94
2023-02-22T23:21:24.423Z,100990.75
2023-02-22T23:23:51.762Z,100994.50
2023-02-22T23:26:18.095Z,100989.28
2023-02-22T23:28:43.181Z,100992.69
2023-02-22T23:31:09.269Z,100983.03
2023-02-22T23:33:32.856Z,100980.09
2023-02-22T23:35:56.442Z,100989.00
2023-02-22T23:38:19.963Z,100995.16
2023-02-22T23:40:46.026Z,100987.72
2023-02-22T23:43:11.775Z,100993.03
2023-02-22T23:45:38.679Z,100988.72
2023-02-22T23:48:02.339Z,100992.06
2023-02-22T23:50:29.012Z,100991.75
2023-02-22T23:52:56.968Z,100990.34
2023-02-22T23:55:21.119Z,100991.91
2023-02-22T23:57:46.024Z,100989.34
